Skip Navigation Links Skip Navigation Links

Current Weather

Auckland, Sydney, Australia

For information only: do not use for flight planning or navigation.
Latest weather
Observation time Wednesday, November 25, 2020 1:00 PM AEDT
Local time Wednesday, November 25, 2020 1:18 PM AEDT
Flight conditions Visual Meteorological Conditions
Winds
Wind direction East-Northeast (70°)
Wind speed 12 mph
Visibility 6.2 mi.
Sky condition
Ceiling 4,500 ft. broken clouds
Cloud layer few clouds 2,000 ft.
Cloud layer scattered clouds 3,000 ft.
Cloud layer broken clouds 4,500 ft.
Temperature 70°F
Dewpoint 59°F
Altimeter 29.94 in.Hg
Derived measurements
Relative humidity 69%
Density altitude 921 ft.
METAR YSSY 250200Z 07010KT 9999 FEW020 SCT030 BKN045 21/15 Q1014

Settings

Location code

InnerDrive.Weather 4.0.6770.0 Release CLR 4.0.30319.42000
Copyright ©2018 Inner Drive Technology. All rights reserved. Portions Copyright ©1986-2018 David Braverman.

Find weather

Site navigation


Skip Navigation Links

Place info

Page info

PayPal - The safer, easier way to pay online!

Return home.

Copyright ©2020 Inner Drive Technology. Purveyors of fine, hand-crafted computer software. Page printed 2020-11-25T02:18:58 UTC.